Time;durP1;ratioP1;P1;durP2;ratioP2;P2;SDS_P1;SDS_P2;PMS_P1;PMS_P2;Temp;Humidity;BMP_temperature;BMP_pressure;BME280_temperature;BME280_humidity;BME280_pressure;Samples;Min_cycle;Max_cycle;Signal;HPM_P1;HPM_P2
2023/04/30 00:02:24;;;;;;;0.47;0.35;;;6.40;99.90;;;;;;5016111;28;20052;-93
2023/04/30 00:04:52;;;;;;;0.93;0.43;;;6.60;99.90;;;;;;5017451;28;20092;-93
2023/04/30 00:07:21;;;;;;;0.65;0.30;;;7.10;99.90;;;;;;5016560;28;20439;-92
2023/04/30 00:09:52;;;;;;;0.20;0.20;;;7.00;99.90;;;;;;5032689;28;20072;-92
2023/04/30 00:12:21;;;;;;;0.43;0.43;;;7.00;99.90;;;;;;5031694;28;20119;-92
2023/04/30 00:14:52;;;;;;;0.47;0.25;;;6.90;99.90;;;;;;5031564;28;20103;-92
2023/04/30 00:17:18;;;;;;;0.35;0.20;;;6.90;99.90;;;;;;5015058;28;20133;-93
2023/04/30 00:19:46;;;;;;;0.97;0.83;;;6.90;99.90;;;;;;5033025;28;20157;-91
2023/04/30 00:22:25;;;;;;;0.20;0.20;;;6.90;99.90;;;;;;5020615;28;20047;-92
2023/04/30 00:25:00;;;;;;;0.20;0.20;;;6.80;99.90;;;;;;5006410;28;20053;-92
2023/04/30 00:27:36;;;;;;;0.35;0.35;;;6.70;99.90;;;;;;5021030;28;20046;-93
2023/04/30 00:30:16;;;;;;;0.20;0.20;;;6.60;99.90;;;;;;5020592;28;20049;-92
2023/04/30 00:32:44;;;;;;;0.40;0.20;;;6.70;99.90;;;;;;5002652;28;20435;-92
2023/04/30 00:35:17;;;;;;;0.40;0.15;;;6.70;99.90;;;;;;5054154;28;20045;-92
2023/04/30 00:37:49;;;;;;;0.28;0.28;;;6.00;99.90;;;;;;5055260;28;20471;-93
2023/04/30 00:40:17;;;;;;;0.93;0.22;;;6.60;99.90;;;;;;5039083;28;20049;-92
2023/04/30 00:42:51;;;;;;;0.35;0.30;;;6.60;99.90;;;;;;5038273;28;20045;-92
2023/04/30 00:45:21;;;;;;;0.22;0.22;;;6.10;99.90;;;;;;5055055;28;20037;-92
2023/04/30 00:47:47;;;;;;;0.17;0.10;;;7.20;99.90;;;;;;5022589;28;20052;-92
2023/04/30 00:50:18;;;;;;;0.20;0.20;;;6.40;99.90;;;;;;5050300;28;20034;-92
2023/04/30 00:52:52;;;;;;;0.65;0.65;;;6.50;99.90;;;;;;5019643;28;20055;-93
2023/04/30 00:55:23;;;;;;;0.10;0.10;;;5.80;99.90;;;;;;5020709;28;20101;-93
2023/04/30 00:58:13;;;;;;;0.38;0.38;;;6.40;99.90;;;;;;5037013;28;20111;-92
2023/04/30 01:00:53;;;;;;;0.52;0.20;;;6.30;99.90;;;;;;5035182;28;20065;-92
2023/04/30 01:03:24;;;;;;;0.32;0.32;;;6.20;99.90;;;;;;5035641;28;20049;-92
2023/04/30 01:05:53;;;;;;;0.20;0.20;;;6.20;99.90;;;;;;5035414;28;20552;-92
2023/04/30 01:08:21;;;;;;;0.20;0.20;;;6.20;99.90;;;;;;5019482;28;20472;-92
2023/04/30 01:11:15;;;;;;;0.20;0.20;;;6.10;99.90;;;;;;5034220;28;20489;-92
2023/04/30 01:14:10;;;;;;;1.08;0.40;;;6.00;99.90;;;;;;5036050;28;20042;-92
2023/04/30 01:16:44;;;;;;;0.20;0.10;;;6.20;99.90;;;;;;5035413;28;20071;-92
2023/04/30 01:19:38;;;;;;;1.38;0.60;;;6.20;99.90;;;;;;5035866;28;20041;-92
2023/04/30 01:22:08;;;;;;;0.20;0.20;;;6.30;99.90;;;;;;5034629;28;20133;-92
2023/04/30 01:25:05;;;;;;;0.10;0.10;;;6.20;99.90;;;;;;5017813;28;20503;-91
2023/04/30 01:27:51;;;;;;;0.28;0.28;;;5.90;99.90;;;;;;5019384;28;20045;-92
2023/04/30 01:30:29;;;;;;;0.73;0.28;;;6.10;99.90;;;;;;5034421;28;20064;-92
2023/04/30 01:32:55;;;;;;;0.22;0.17;;;5.10;99.90;;;;;;5017095;28;20510;-93
2023/04/30 01:35:54;;;;;;;0.25;0.20;;;6.00;99.90;;;;;;5034776;28;20491;-92
2023/04/30 01:38:30;;;;;;;;;;;6.00;99.90;;;;;;5019293;28;20446;-93
2023/04/30 01:41:02;;;;;;;0.35;0.20;;;5.90;99.90;;;;;;5034168;28;19925;-93
2023/04/30 01:44:05;;;;;;;0.45;0.30;;;5.90;99.90;;;;;;5018594;28;20135;-92
2023/04/30 01:46:31;;;;;;;0.30;0.30;;;5.80;99.90;;;;;;5035685;28;20526;-92
2023/04/30 01:49:05;;;;;;;0.20;0.20;;;6.50;99.90;;;;;;5034966;28;20053;-92
2023/04/30 01:51:45;;;;;;;0.28;0.28;;;5.80;99.90;;;;;;5018369;28;20045;-93
2023/04/30 01:54:46;;;;;;;0.20;0.20;;;5.70;99.90;;;;;;5019446;28;20056;-93
2023/04/30 01:57:38;;;;;;;1.10;0.38;;;6.40;99.90;;;;;;5054247;28;20041;-93
2023/04/30 02:00:08;;;;;;;0.35;0.35;;;5.80;99.90;;;;;;5054773;28;20153;-92
2023/04/30 02:02:42;;;;;;;1.00;0.47;;;5.60;99.90;;;;;;5037545;28;20057;-92
2023/04/30 02:05:17;;;;;;;0.32;0.25;;;5.60;99.90;;;;;;5053843;28;20534;-92
2023/04/30 02:08:00;;;;;;;0.10;0.10;;;5.60;99.90;;;;;;5038169;28;20372;-92
2023/04/30 02:10:38;;;;;;;;;;;;;;;;;;;;;
2023/04/30 02:13:07;;;;;;;0.10;0.10;;;5.50;99.90;;;;;;5053865;28;20052;-92
2023/04/30 02:15:36;;;;;;;0.77;0.32;;;5.50;99.90;;;;;;5053884;28;20076;-91
2023/04/30 02:18:12;;;;;;;0.20;0.20;;;5.40;99.90;;;;;;5037429;28;20470;-92
2023/04/30 02:23:36;;;;;;;1.17;0.43;;;5.30;99.90;;;;;;5049372;28;20053;-92
2023/04/30 02:26:07;;;;;;;0.20;0.20;;;4.60;99.90;;;;;;5032888;28;20430;-92
2023/04/30 02:28:38;;;;;;;0.20;0.20;;;5.20;99.90;;;;;;5001768;28;20049;-92
2023/04/30 02:31:06;;;;;;;0.40;0.40;;;5.30;99.90;;;;;;5033720;28;20475;-92
2023/04/30 02:33:46;;;;;;;0.52;0.32;;;5.10;99.90;;;;;;5018654;28;20534;-93
2023/04/30 02:36:21;;;;;;;0.20;0.20;;;4.70;99.90;;;;;;5034741;28;20053;-92
2023/04/30 02:38:55;;;;;;;1.45;0.68;;;5.10;99.90;;;;;;5018741;28;20148;-92
2023/04/30 02:41:29;;;;;;;0.20;0.20;;;4.90;99.90;;;;;;5017814;28;20088;-92
2023/04/30 02:43:55;;;;;;;0.10;0.10;;;5.10;99.90;;;;;;5001174;28;20041;-92
2023/04/30 02:46:31;;;;;;;0.40;0.40;;;5.00;99.90;;;;;;5033341;28;20045;-92
2023/04/30 02:49:04;;;;;;;0.20;0.20;;;4.90;99.90;;;;;;5033099;28;20054;-92
2023/04/30 02:51:41;;;;;;;0.82;0.30;;;5.00;99.90;;;;;;5033503;28;20083;-92
2023/04/30 02:54:09;;;;;;;0.30;0.30;;;4.90;99.90;;;;;;5032954;28;20064;-93
2023/04/30 02:56:37;;;;;;;0.20;0.20;;;5.10;99.90;;;;;;5016612;28;20045;-93
2023/04/30 02:59:03;;;;;;;0.43;0.20;;;4.80;99.90;;;;;;5032972;28;20041;-92
2023/04/30 03:01:40;;;;;;;0.20;0.20;;;4.90;99.90;;;;;;5032983;28;20056;-92
2023/04/30 03:04:13;;;;;;;0.13;0.10;;;4.90;99.90;;;;;;5016022;28;20443;-92
2023/04/30 03:06:39;;;;;;;0.10;0.10;;;4.90;99.90;;;;;;5032835;28;20049;-92
2023/04/30 03:09:25;;;;;;;0.87;0.53;;;4.80;99.90;;;;;;5032005;28;20037;-92
2023/04/30 03:12:15;;;;;;;2.00;0.28;;;4.80;99.90;;;;;;5015972;28;20044;-93
2023/04/30 03:14:44;;;;;;;0.17;0.17;;;4.60;99.90;;;;;;5019374;28;20045;-95
2023/04/30 03:17:10;;;;;;;0.32;0.32;;;3.70;99.90;;;;;;5015742;28;20049;-94
2023/04/30 03:19:48;;;;;;;;;;;;;;;;;;;;;
2023/04/30 03:22:22;;;;;;;0.70;0.70;;;4.40;99.90;;;;;;5032934;28;20509;-92
2023/04/30 03:24:51;;;;;;;0.30;0.30;;;4.50;99.90;;;;;;5017414;28;20060;-92
2023/04/30 03:27:22;;;;;;;0.32;0.10;;;3.60;99.90;;;;;;5016586;28;20492;-93
2023/04/30 03:29:50;;;;;;;0.13;0.13;;;4.60;99.90;;;;;;5033256;28;20140;-93
2023/04/30 03:32:21;;;;;;;1.38;0.32;;;4.50;99.90;;;;;;5001091;28;20061;-92
2023/04/30 03:34:47;;;;;;;0.30;0.30;;;4.60;99.90;;;;;;5016019;28;20073;-92
2023/04/30 03:37:34;;;;;;;0.20;0.20;;;4.70;99.90;;;;;;5016886;28;20042;-93
2023/04/30 03:40:07;;;;;;;0.63;0.60;;;4.60;99.90;;;;;;5031798;28;20128;-92
2023/04/30 03:42:38;;;;;;;0.45;0.20;;;4.60;99.90;;;;;;5032847;28;20110;-92
2023/04/30 03:45:09;;;;;;;0.22;0.22;;;4.00;99.90;;;;;;5016107;28;20053;-93
2023/04/30 03:47:42;;;;;;;0.45;0.30;;;4.60;99.90;;;;;;5032398;28;20085;-92
2023/04/30 03:50:13;;;;;;;0.10;0.10;;;4.70;99.90;;;;;;5015767;28;20046;-93
2023/04/30 03:52:52;;;;;;;0.90;0.40;;;4.80;99.90;;;;;;5031851;28;20061;-91
2023/04/30 03:55:20;;;;;;;1.58;0.47;;;4.70;99.90;;;;;;5032332;28;20064;-92
2023/04/30 03:57:49;;;;;;;0.55;0.40;;;4.70;99.90;;;;;;5031917;28;20055;-93
2023/04/30 04:00:25;;;;;;;0.63;0.32;;;4.80;99.90;;;;;;5015113;28;20162;-93
2023/04/30 04:02:51;;;;;;;0.60;0.60;;;4.90;99.90;;;;;;5016513;28;20089;-92
2023/04/30 04:05:30;;;;;;;0.50;0.30;;;4.90;99.90;;;;;;5031919;28;20085;-91
2023/04/30 04:07:59;;;;;;;0.60;0.60;;;4.90;99.90;;;;;;5015271;28;20054;-93
2023/04/30 04:10:25;;;;;;;0.35;0.10;;;4.90;99.90;;;;;;5015943;28;20072;-92
2023/04/30 04:12:58;;;;;;;0.40;0.23;;;4.90;99.90;;;;;;5022709;28;20045;-92
2023/04/30 04:15:23;;;;;;;0.10;0.10;;;4.90;99.90;;;;;;5049185;28;20049;-91
2023/04/30 04:17:54;;;;;;;0.57;0.37;;;4.90;99.90;;;;;;5016374;28;20057;-91
2023/04/30 04:20:30;;;;;;;;;;;;;;;;;;;;;
2023/04/30 04:22:56;;;;;;;0.70;0.17;;;5.00;99.90;;;;;;5032326;28;20649;-92
2023/04/30 04:25:24;;;;;;;0.87;0.37;;;4.80;99.90;;;;;;5015866;28;20136;-90
2023/04/30 04:27:51;;;;;;;0.22;0.20;;;4.90;99.90;;;;;;4998705;28;20579;-92
2023/04/30 04:30:17;;;;;;;0.70;0.50;;;5.00;99.90;;;;;;5031148;28;20047;-91
2023/04/30 04:32:48;;;;;;;0.20;0.20;;;5.00;99.90;;;;;;5014846;28;20084;-92
2023/04/30 04:35:24;;;;;;;0.43;0.20;;;5.70;99.90;;;;;;5031542;28;20050;-91
2023/04/30 04:37:52;;;;;;;0.30;0.22;;;5.00;99.90;;;;;;5032348;28;20045;-91
2023/04/30 04:40:18;;;;;;;0.93;0.60;;;5.00;99.90;;;;;;5037631;28;20042;-91
2023/04/30 04:42:51;;;;;;;0.20;0.17;;;4.60;99.90;;;;;;5032281;28;20044;-92
2023/04/30 04:45:23;;;;;;;0.35;0.35;;;4.30;99.90;;;;;;5047398;28;20045;-91
2023/04/30 04:47:49;;;;;;;0.55;0.32;;;4.40;99.90;;;;;;5015191;28;20049;-91
2023/04/30 04:50:18;;;;;;;0.50;0.50;;;4.80;99.90;;;;;;5014498;28;20048;-92
2023/04/30 04:52:51;;;;;;;0.10;0.10;;;4.90;99.90;;;;;;5031810;28;20045;-92
2023/04/30 04:55:17;;;;;;;0.28;0.28;;;4.90;99.90;;;;;;5031690;28;20077;-92
2023/04/30 04:57:52;;;;;;;0.25;0.20;;;5.00;99.90;;;;;;5015631;28;20041;-91
2023/04/30 05:00:32;;;;;;;0.32;0.30;;;4.90;99.90;;;;;;5049552;28;20106;-92
2023/04/30 05:03:10;;;;;;;1.35;0.43;;;4.60;99.90;;;;;;5032724;28;20075;-92
2023/04/30 05:05:39;;;;;;;1.33;0.45;;;5.00;99.90;;;;;;5032189;28;20499;-90
2023/04/30 05:08:05;;;;;;;0.08;0.08;;;5.10;99.90;;;;;;5034963;28;20507;-91
2023/04/30 05:10:35;;;;;;;0.30;0.30;;;5.30;99.90;;;;;;5035966;28;20076;-92
2023/04/30 05:13:05;;;;;;;0.38;0.20;;;5.60;99.90;;;;;;5016330;28;20062;-93
2023/04/30 05:15:36;;;;;;;0.20;0.20;;;5.80;99.90;;;;;;5019449;28;20053;-92
2023/04/30 05:18:05;;;;;;;0.82;0.30;;;6.00;99.90;;;;;;5035621;28;20041;-93
2023/04/30 05:20:49;;;;;;;0.35;0.35;;;6.20;99.90;;;;;;5034820;28;20047;-93
2023/04/30 05:23:17;;;;;;;0.43;0.13;;;5.60;99.90;;;;;;5035068;28;20085;-92
2023/04/30 05:26:04;;;;;;;0.52;0.43;;;6.70;99.90;;;;;;5035060;28;20057;-93
2023/04/30 05:28:32;;;;;;;0.50;0.30;;;6.80;99.90;;;;;;5018115;28;20138;-91
2023/04/30 05:30:57;;;;;;;0.75;0.43;;;7.10;99.90;;;;;;5034730;28;20064;-92
2023/04/30 05:33:26;;;;;;;0.20;0.13;;;7.30;99.90;;;;;;5033663;28;20544;-93
2023/04/30 05:35:55;;;;;;;0.40;0.32;;;7.70;99.90;;;;;;5035265;28;20045;-92
2023/04/30 05:38:33;;;;;;;0.37;0.37;;;7.90;99.90;;;;;;5033728;28;20056;-91
2023/04/30 05:40:59;;;;;;;3.13;0.55;;;8.20;99.90;;;;;;5052620;28;20076;-91
2023/04/30 05:43:28;;;;;;;0.50;0.45;;;7.80;99.90;;;;;;5037056;28;20495;-91
2023/04/30 05:46:06;;;;;;;;;;;;;;;;;;;;;
2023/04/30 05:48:34;;;;;;;0.40;0.40;;;8.90;99.90;;;;;;5043790;28;20060;-92
2023/04/30 05:51:09;;;;;;;0.20;0.20;;;9.10;99.90;;;;;;5034417;28;20044;-92
2023/04/30 05:53:38;;;;;;;0.52;0.30;;;9.20;99.90;;;;;;5034429;28;20045;-91
2023/04/30 05:56:07;;;;;;;0.80;0.50;;;9.50;99.90;;;;;;5050524;28;20115;-94
2023/04/30 05:58:38;;;;;;;0.50;0.50;;;9.60;99.90;;;;;;5034275;28;20049;-91
2023/04/30 06:01:11;;;;;;;0.43;0.43;;;9.90;99.90;;;;;;5034692;28;20072;-92
2023/04/30 06:03:39;;;;;;;0.10;0.10;;;9.80;99.90;;;;;;5018499;28;20045;-87
2023/04/30 06:09:52;;;;;;;0.30;0.30;;;10.10;99.90;;;;;;5035448;28;20080;-88
2023/04/30 06:12:17;;;;;;;0.30;0.30;;;10.20;99.90;;;;;;5049668;28;20539;-91
2023/04/30 06:14:44;;;;;;;0.50;0.47;;;10.30;99.90;;;;;;5034825;28;20045;-89
2023/04/30 06:17:11;;;;;;;0.20;0.08;;;10.40;99.90;;;;;;5032871;28;20119;-92
2023/04/30 06:19:37;;;;;;;;;;;10.50;99.90;;;;;;5018676;28;20061;-90
2023/04/30 06:22:05;;;;;;;0.10;0.10;;;10.50;99.90;;;;;;5033965;28;19928;-87
2023/04/30 06:24:31;;;;;;;0.45;0.28;;;10.60;99.90;;;;;;5032323;28;20300;-90
2023/04/30 06:26:57;;;;;;;0.10;0.10;;;10.50;99.90;;;;;;5033127;28;20479;-90
2023/04/30 06:29:23;;;;;;;0.20;0.20;;;10.50;99.90;;;;;;5015851;28;20053;-89
2023/04/30 06:31:51;;;;;;;0.10;0.10;;;10.20;99.90;;;;;;5036041;28;20055;-89
2023/04/30 06:34:19;;;;;;;0.52;0.52;;;10.00;99.90;;;;;;5036206;28;20048;-91
2023/04/30 06:36:45;;;;;;;4.03;0.85;;;9.70;99.90;;;;;;5037502;28;20071;-91
2023/04/30 06:39:14;;;;;;;0.30;0.30;;;9.70;99.90;;;;;;5053759;28;20657;-90
2023/04/30 06:41:40;;;;;;;1.00;0.38;;;9.90;99.90;;;;;;5053724;28;20064;-86
2023/04/30 06:44:12;;;;;;;0.30;0.30;;;9.80;99.90;;;;;;5036579;28;20059;-92
2023/04/30 06:46:38;;;;;;;0.30;0.30;;;9.90;99.90;;;;;;5047910;28;20041;-88
2023/04/30 06:49:03;;;;;;;0.50;0.40;;;10.00;99.90;;;;;;5023635;28;20052;-91
2023/04/30 06:51:29;;;;;;;0.10;0.10;;;10.20;99.90;;;;;;5038920;28;20040;-84
2023/04/30 06:53:57;;;;;;;0.15;0.15;;;10.50;99.90;;;;;;5051570;28;20040;-91
2023/04/30 06:56:23;;;;;;;0.32;0.30;;;10.80;99.90;;;;;;5019947;28;20044;-88
2023/04/30 06:58:49;;;;;;;0.75;0.32;;;10.80;99.90;;;;;;5020503;28;20506;-94
2023/04/30 07:01:18;;;;;;;0.10;0.10;;;10.80;99.90;;;;;;5004394;28;20080;-86
2023/04/30 07:03:46;;;;;;;0.30;0.20;;;10.60;99.90;;;;;;5020563;28;20045;-89
2023/04/30 07:06:15;;;;;;;0.10;0.10;;;10.40;99.90;;;;;;5036051;28;20052;-88
2023/04/30 07:08:56;;;;;;;;;;;;;;;;;;;;;
2023/04/30 07:11:27;;;;;;;0.32;0.15;;;9.90;99.90;;;;;;5051437;28;20541;-87
2023/04/30 07:13:58;;;;;;;0.03;0.03;;;10.70;99.90;;;;;;5039664;28;20048;-88
2023/04/30 07:16:26;;;;;;;0.22;0.22;;;11.10;99.90;;;;;;5049149;28;20049;-88
2023/04/30 07:19:01;;;;;;;0.52;0.20;;;11.50;99.90;;;;;;5037476;28;20045;-87
2023/04/30 07:21:38;;;;;;;0.28;0.10;;;11.80;99.90;;;;;;5037032;28;20057;-88
2023/04/30 07:24:33;;;;;;;0.10;0.10;;;11.20;99.90;;;;;;5035894;28;20478;-85
2023/04/30 07:27:09;;;;;;;0.25;0.20;;;12.50;99.90;;;;;;5010674;28;20387;-88
2023/04/30 07:29:39;;;;;;;0.20;0.20;;;13.30;99.90;;;;;;5020127;28;20045;-86
2023/04/30 07:32:05;;;;;;;0.25;0.10;;;13.10;99.90;;;;;;5052916;28;20057;-83
2023/04/30 07:34:33;;;;;;;0.50;0.50;;;13.30;99.90;;;;;;5035555;28;20400;-84
2023/04/30 07:37:05;;;;;;;1.90;0.40;;;13.50;99.90;;;;;;5035407;28;20044;-85
2023/04/30 07:39:31;;;;;;;0.20;0.20;;;13.70;99.90;;;;;;5067493;28;20487;-86
2023/04/30 07:41:59;;;;;;;0.30;0.20;;;13.90;99.90;;;;;;5034952;28;20075;-87
2023/04/30 07:44:28;;;;;;;0.10;0.10;;;14.00;99.90;;;;;;5044380;28;20041;-87
2023/04/30 07:46:57;;;;;;;0.25;0.20;;;14.20;99.90;;;;;;5052989;28;20114;-86
2023/04/30 07:49:33;;;;;;;1.25;0.55;;;14.40;99.90;;;;;;5053791;28;20084;-89
2023/04/30 07:52:09;;;;;;;;;;;14.50;99.90;;;;;;5053671;28;20045;-87
2023/04/30 07:54:43;;;;;;;0.30;0.20;;;14.40;99.90;;;;;;5040578;28;19920;-88
2023/04/30 08:00:14;;;;;;;0.40;0.40;;;14.20;99.90;;;;;;5036068;28;20540;-87
2023/04/30 08:02:47;;;;;;;0.30;0.30;;;14.50;99.90;;;;;;5035308;28;20097;-87
2023/04/30 08:05:24;;;;;;;0.45;0.45;;;14.60;99.90;;;;;;5035729;28;20068;-89
2023/04/30 08:07:57;;;;;;;0.30;0.20;;;14.70;99.90;;;;;;5034814;28;20087;-88
2023/04/30 08:10:59;;;;;;;0.70;0.32;;;15.30;99.90;;;;;;5040419;28;20060;-87
2023/04/30 08:13:30;;;;;;;1.02;0.30;;;14.90;99.90;;;;;;5020229;28;20060;-89
2023/04/30 08:16:24;;;;;;;;;;;;;;;;;;;;;
2023/04/30 08:18:50;;;;;;;0.20;0.20;;;14.20;99.90;;;;;;5026027;28;20098;-88
2023/04/30 08:21:34;;;;;;;;;;;;;;;;;;;;;
2023/04/30 08:24:05;;;;;;;0.10;0.10;;;13.30;99.90;;;;;;5056592;28;20044;-86
2023/04/30 08:26:31;;;;;;;3.72;0.50;;;13.70;99.90;;;;;;5039579;28;20080;-87
2023/04/30 08:28:59;;;;;;;0.20;0.20;;;13.60;99.90;;;;;;5053194;28;20091;-90
2023/04/30 08:31:25;;;;;;;0.20;0.20;;;13.60;99.90;;;;;;5052726;28;20045;-92
2023/04/30 08:33:53;;;;;;;0.47;0.30;;;13.60;99.90;;;;;;5018348;28;20083;-93
2023/04/30 08:36:19;;;;;;;0.35;0.10;;;13.60;99.90;;;;;;5019568;28;20056;-87
2023/04/30 08:39:01;;;;;;;1.85;0.50;;;13.60;99.90;;;;;;5053031;28;20049;-89
2023/04/30 08:41:42;;;;;;;0.30;0.10;;;13.30;99.90;;;;;;5056871;28;20049;-90
2023/04/30 08:44:32;;;;;;;0.17;0.17;;;13.40;99.90;;;;;;5042001;28;20486;-88
2023/04/30 08:47:07;;;;;;;0.30;0.30;;;13.40;99.90;;;;;;5042699;28;20052;-85
2023/04/30 08:49:52;;;;;;;;;;;;;;;;;;;;;
2023/04/30 08:52:37;;;;;;;0.22;0.20;;;12.60;99.90;;;;;;5060536;28;20041;-89
2023/04/30 08:55:16;;;;;;;0.13;0.13;;;13.30;99.90;;;;;;5059187;28;20094;-89
2023/04/30 08:57:45;;;;;;;1.13;0.88;;;13.40;99.90;;;;;;5052188;28;20048;-92
2023/04/30 09:00:14;;;;;;;0.47;0.40;;;13.40;99.90;;;;;;5038708;28;20049;-94
2023/04/30 09:02:50;;;;;;;0.43;0.20;;;13.30;99.90;;;;;;5034043;28;20067;-93
2023/04/30 09:05:19;;;;;;;0.38;0.38;;;13.30;99.90;;;;;;5059526;28;20529;-90
2023/04/30 09:07:46;;;;;;;0.20;0.20;;;13.50;99.90;;;;;;5041823;28;20041;-91
2023/04/30 09:10:23;;;;;;;0.10;0.10;;;13.70;99.90;;;;;;5028667;28;20563;-93
2023/04/30 09:13:03;;;;;;;;;;;13.70;99.90;;;;;;5027169;28;20462;-94
2023/04/30 09:15:42;;;;;;;1.73;0.22;;;13.90;99.90;;;;;;5043974;28;19927;-91
2023/04/30 09:18:20;;;;;;;0.57;0.20;;;13.90;99.90;;;;;;5058132;28;20106;-91
2023/04/30 09:21:00;;;;;;;0.10;0.10;;;13.80;99.90;;;;;;5058283;28;20056;-91
2023/04/30 09:23:27;;;;;;;0.20;0.20;;;13.90;99.90;;;;;;5074893;28;20106;-87
2023/04/30 09:25:53;;;;;;;;;;;13.80;99.90;;;;;;5064201;28;20057;-94
2023/04/30 09:28:36;;;;;;;;;;;;;;;;;;;;;
2023/04/30 09:31:17;;;;;;;0.22;0.22;;;14.20;99.90;;;;;;5041151;28;20040;-96
2023/04/30 09:33:49;;;;;;;0.85;0.40;;;14.40;99.90;;;;;;5017937;28;20491;-96
2023/04/30 09:36:18;;;;;;;2.45;0.55;;;14.50;99.90;;;;;;5036502;28;20050;-96
2023/04/30 09:38:44;;;;;;;0.30;0.30;;;14.50;99.90;;;;;;5020417;28;20462;-95
2023/04/30 09:41:28;;;;;;;0.47;0.22;;;14.60;99.90;;;;;;5038843;28;20077;-96
2023/04/30 09:43:56;;;;;;;0.45;0.45;;;14.80;99.90;;;;;;5034316;28;20554;-96
2023/04/30 09:46:37;;;;;;;0.28;0.28;;;15.00;99.90;;;;;;5035586;28;20084;-94
2023/04/30 09:49:06;;;;;;;0.20;0.10;;;15.80;99.90;;;;;;5036170;28;20578;-95
2023/04/30 09:51:35;;;;;;;0.45;0.43;;;15.40;99.90;;;;;;5019634;28;20128;-96
2023/04/30 09:54:09;;;;;;;0.70;0.25;;;15.80;99.90;;;;;;5034140;28;20049;-93
2023/04/30 09:56:41;;;;;;;0.57;0.20;;;15.90;99.90;;;;;;5059617;28;20056;-94
2023/04/30 09:59:14;;;;;;;0.63;0.40;;;15.80;99.90;;;;;;5056434;28;20107;-94
2023/04/30 10:01:43;;;;;;;0.40;0.30;;;15.70;99.90;;;;;;5022487;28;20063;-92
2023/04/30 10:04:19;;;;;;;;;;;;;;;;;;;;;
2023/04/30 10:06:56;;;;;;;1.80;0.08;;;15.90;99.90;;;;;;5049835;28;20552;-94
2023/04/30 10:10:01;;;;;;;0.10;0.10;;;16.30;99.90;;;;;;5034044;28;20131;-96
2023/04/30 10:12:53;;;;;;;0.20;0.10;;;16.50;99.90;;;;;;5017076;28;20045;-94
2023/04/30 10:15:56;;;;;;;0.20;0.20;;;16.40;99.90;;;;;;5055013;28;20053;-95
2023/04/30 10:18:35;;;;;;;0.20;0.05;;;15.80;99.90;;;;;;5024305;28;20057;-94
2023/04/30 10:24:19;;;;;;;0.40;0.20;;;16.90;99.90;;;;;;5021922;28;20086;-94
2023/04/30 10:26:56;;;;;;;1.20;0.65;;;17.30;99.90;;;;;;5064610;28;20048;-91
2023/04/30 10:29:22;;;;;;;1.08;0.15;;;17.40;99.90;;;;;;5007759;28;20133;-86
2023/04/30 10:31:51;;;;;;;0.30;0.30;;;17.30;99.90;;;;;;5041274;28;20101;-94
2023/04/30 10:34:38;;;;;;;0.20;0.20;;;17.60;99.90;;;;;;5018502;28;20055;-95
2023/04/30 10:37:41;;;;;;;0.10;0.10;;;17.70;99.90;;;;;;5034592;28;20187;-95
2023/04/30 10:40:13;;;;;;;1.55;0.45;;;17.40;99.90;;;;;;5017812;28;20053;-95
2023/04/30 10:42:47;;;;;;;0.10;0.10;;;17.40;99.90;;;;;;5018590;28;20045;-95
2023/04/30 10:45:19;;;;;;;0.60;0.30;;;17.40;99.90;;;;;;5035239;28;20049;-95
2023/04/30 10:47:47;;;;;;;0.55;0.20;;;17.40;99.90;;;;;;5035468;28;20048;-91
2023/04/30 10:50:16;;;;;;;0.20;0.20;;;17.60;99.90;;;;;;5018497;28;20057;-96
2023/04/30 10:52:44;;;;;;;0.55;0.20;;;17.70;99.90;;;;;;5018400;28;20037;-95
2023/04/30 10:55:10;;;;;;;0.55;0.30;;;17.70;99.90;;;;;;5016977;28;20450;-95
2023/04/30 10:57:47;;;;;;;1.27;0.30;;;17.90;99.90;;;;;;5018081;28;20057;-94
2023/04/30 11:00:18;;;;;;;0.20;0.20;;;18.00;99.90;;;;;;5034125;28;20119;-93
2023/04/30 11:02:47;;;;;;;0.25;0.20;;;18.10;99.90;;;;;;5033816;28;20084;-94
2023/04/30 11:05:17;;;;;;;0.90;0.30;;;18.20;99.90;;;;;;5033997;28;20133;-94
2023/04/30 11:07:48;;;;;;;0.32;0.32;;;18.50;99.90;;;;;;5033790;28;20480;-94
2023/04/30 11:10:22;;;;;;;0.28;0.28;;;17.90;99.90;;;;;;5016953;28;20053;-95
2023/04/30 11:12:49;;;;;;;0.22;0.22;;;18.70;99.90;;;;;;5033140;28;20484;-94
2023/04/30 11:15:41;;;;;;;0.68;0.20;;;18.70;99.90;;;;;;5045443;28;20102;-94
2023/04/30 11:18:12;;;;;;;0.17;0.17;;;18.70;99.90;;;;;;5052689;28;20051;-94
2023/04/30 11:20:53;;;;;;;0.25;0.20;;;18.60;99.90;;;;;;5036504;28;20518;-94
2023/04/30 11:23:23;;;;;;;0.30;0.10;;;18.60;99.90;;;;;;5053606;28;20434;-95
2023/04/30 11:26:00;;;;;;;0.00;0.00;;;18.70;99.90;;;;;;5053347;28;20071;-95
2023/04/30 11:28:33;;;;;;;0.32;0.10;;;18.60;99.90;;;;;;5036052;28;20053;-94
2023/04/30 11:31:02;;;;;;;0.85;0.38;;;18.60;99.90;;;;;;5052802;28;20051;-94
2023/04/30 11:33:49;;;;;;;0.43;0.25;;;18.70;99.90;;;;;;5112076;27;20445;-96
2023/04/30 11:36:21;;;;;;;0.30;0.28;;;18.80;99.90;;;;;;5094496;28;20493;-96
2023/04/30 11:38:47;;;;;;;0.75;0.25;;;18.90;98.70;;;;;;5093293;28;20044;-96
2023/04/30 11:41:13;;;;;;;0.10;0.10;;;19.00;99.90;;;;;;5110982;28;20507;-96
2023/04/30 11:43:39;;;;;;;0.85;0.22;;;18.70;99.90;;;;;;5109837;28;20086;-96
2023/04/30 11:46:16;;;;;;;0.10;0.10;;;19.30;99.90;;;;;;5093614;28;20087;-96
2023/04/30 11:48:48;;;;;;;0.50;0.45;;;19.20;99.90;;;;;;5110258;28;20039;-96
2023/04/30 11:51:22;;;;;;;0.30;0.10;;;19.40;99.90;;;;;;5110169;28;20051;-96
2023/04/30 11:53:52;;;;;;;0.20;0.20;;;19.50;98.50;;;;;;5093294;28;20130;-96
2023/04/30 11:56:37;;;;;;;0.20;0.20;;;19.50;98.60;;;;;;5109957;28;20055;-96
2023/04/30 11:59:09;;;;;;;0.40;0.40;;;19.50;99.90;;;;;;5092805;28;20047;-96
2023/04/30 12:01:39;;;;;;;0.73;0.10;;;19.60;98.90;;;;;;5092799;28;20047;-96
2023/04/30 12:04:07;;;;;;;0.00;0.00;;;19.80;99.90;;;;;;5109463;28;20100;-96
2023/04/30 12:06:38;;;;;;;0.47;0.47;;;19.90;99.90;;;;;;5143973;27;20086;-96
2023/04/30 12:09:07;;;;;;;0.85;0.47;;;19.80;99.90;;;;;;5108183;28;20139;-96
2023/04/30 12:11:55;;;;;;;0.20;0.20;;;19.80;98.40;;;;;;5109375;28;20084;-96
2023/04/30 12:14:26;;;;;;;0.10;0.10;;;19.70;99.90;;;;;;5109514;28;20083;-96
2023/04/30 12:16:52;;;;;;;0.08;0.08;;;19.80;99.80;;;;;;5109666;28;20039;-96
2023/04/30 12:19:24;;;;;;;1.13;0.30;;;19.90;99.40;;;;;;5108480;28;20099;-95
2023/04/30 12:21:55;;;;;;;0.30;0.30;;;19.80;99.30;;;;;;5109560;28;20473;-96
2023/04/30 12:24:23;;;;;;;0.20;0.20;;;19.80;98.90;;;;;;5109083;28;20149;-96
2023/04/30 12:26:52;;;;;;;0.17;0.17;;;19.80;98.90;;;;;;5110189;28;20520;-96
2023/04/30 12:29:24;;;;;;;0.20;0.10;;;19.70;99.80;;;;;;5109104;28;20079;-96
2023/04/30 12:31:53;;;;;;;0.15;0.00;;;20.00;95.90;;;;;;5107747;28;20087;-95
2023/04/30 12:34:19;;;;;;;0.15;0.15;;;20.10;96.60;;;;;;5108709;28;20051;-96
2023/04/30 12:36:45;;;;;;;0.20;0.20;;;20.20;98.80;;;;;;5108756;28;20044;-95
2023/04/30 12:39:15;;;;;;;0.10;0.10;;;19.90;99.30;;;;;;5090482;28;20477;-96
2023/04/30 12:41:48;;;;;;;0.52;0.30;;;20.00;97.30;;;;;;5108805;28;20046;-96
2023/04/30 12:44:24;;;;;;;0.20;0.10;;;20.10;96.80;;;;;;5082643;28;20402;-96
2023/04/30 12:46:57;;;;;;;0.20;0.20;;;20.30;97.60;;;;;;5078386;28;20051;-95
2023/04/30 12:49:35;;;;;;;0.10;0.10;;;20.40;96.70;;;;;;5078251;28;20044;-95
2023/04/30 12:52:11;;;;;;;0.10;0.10;;;20.50;96.40;;;;;;5077629;28;20043;-93
2023/04/30 12:54:42;;;;;;;0.73;0.20;;;20.60;96.80;;;;;;5078131;28;20044;-96
2023/04/30 12:57:11;;;;;;;0.20;0.20;;;20.30;97.40;;;;;;5077846;28;20040;-95
2023/04/30 12:59:58;;;;;;;0.10;0.10;;;20.20;97.60;;;;;;5078150;28;20048;-95
2023/04/30 13:02:30;;;;;;;2.33;0.40;;;20.30;95.60;;;;;;5077763;28;20060;-95
2023/04/30 13:05:18;;;;;;;0.10;0.10;;;20.30;97.90;;;;;;5078157;28;20063;-95
2023/04/30 13:07:54;;;;;;;0.20;0.20;;;20.50;97.40;;;;;;5078084;28;20066;-94
2023/04/30 13:10:25;;;;;;;0.33;0.30;;;20.50;95.50;;;;;;5093453;28;20071;-95
2023/04/30 13:12:52;;;;;;;0.10;0.10;;;20.60;94.30;;;;;;5077877;28;20039;-96
2023/04/30 13:15:24;;;;;;;0.20;0.10;;;20.60;95.10;;;;;;5077988;28;20052;-95
2023/04/30 13:17:52;;;;;;;0.20;0.13;;;20.80;95.70;;;;;;5078032;28;20080;-96
2023/04/30 13:20:20;;;;;;;0.30;0.30;;;20.90;97.40;;;;;;5077415;28;20055;-95
2023/04/30 13:22:46;;;;;;;0.17;0.17;;;20.70;96.30;;;;;;5061262;28;20127;-95
2023/04/30 13:25:17;;;;;;;0.30;0.10;;;20.60;95.40;;;;;;5094152;28;20139;-95
2023/04/30 13:28:01;;;;;;;0.20;0.10;;;20.70;93.90;;;;;;5077959;28;20044;-95
2023/04/30 13:30:38;;;;;;;0.30;0.28;;;20.80;96.20;;;;;;5062048;28;20075;-96
2023/04/30 13:33:16;;;;;;;0.85;0.43;;;21.00;93.30;;;;;;5078351;28;20058;-95
2023/04/30 13:35:49;;;;;;;0.20;0.20;;;21.20;93.10;;;;;;5062486;28;20048;-95
2023/04/30 13:38:18;;;;;;;0.15;0.15;;;21.10;94.50;;;;;;5077381;28;20394;-96
2023/04/30 13:40:46;;;;;;;0.22;0.22;;;21.20;94.10;;;;;;5093144;28;20052;-95
2023/04/30 13:43:14;;;;;;;0.35;0.30;;;21.30;93.80;;;;;;5077598;28;20036;-95
2023/04/30 13:45:42;;;;;;;0.10;0.10;;;20.90;92.90;;;;;;5077536;28;20044;-95
2023/04/30 13:48:10;;;;;;;0.38;0.38;;;21.50;93.20;;;;;;5076610;28;20052;-94
2023/04/30 13:50:39;;;;;;;0.20;0.20;;;21.50;91.50;;;;;;5060441;28;20135;-95